Campbell AAF (Fort Campbell) Air Field
KHOP : rendu visible

Aérodrome :











RETROUVEZ-NOUS SUR...

 
LOGIN :

S'inscrire | Disclaimer

   EN    FR    IT 

 









Légende :    VFR   VFR Marginal   IFR   IFR Intensif   IFR Très Intensif
Visi : 
Plafond : 
>= 8 km
>= 3000ft
5 à 8 km
1000 à 3000 ft
1500m à 5 km
500 à 1000 ft
800 à 1500m
200 à 500 ft
< 800m
< 200 ft
Symboles :   Orages  Brouillard  Fortes neiges  Fortes précipitations  Vent > 20 kt






- Altitude de l'aérodrome : 573 ft


KHOP - Campbell AAF (Fort Campbell) Air Field

DERNIER METAR :
  • 221556Z AUTO 21005KT 10SM CLR 06/M09 A3047 RMK AO2 SLP325 T00561094

METARs EXPIRÉS :
  • 221456Z AUTO 21006KT 10SM CLR 02/M07 A3048 RMK AO2 SLP329 T00221074 53005
  • 221356Z AUTO 00000KT 10SM CLR M02/M07 A3048 RMK AO2 SLP330 T10181071

TAF TAF KHOP
Valide du 22 à 16h jusqu'au 23 à 22h UTC


221600Z 2216/2322 VRB06KT 9999 SKC QNH3031INS
BECMG 2306/2307 VRB06KT 9999 SCT200 QNH3028INS
BECMG 2312/2313 VRB06KT 9999 SCT090 BKN180 QNH3022INS
BECMG 2317/2318 20010G15KT 9000 -RA BKN020 QNH3016INS TX08/2221Z TN01/2310Z



MET'MAP, la Météo Aéronautique d'un coup d'oeil ! - Copyright ORBIFLY Décembre 2007 - Disclaimer

ORBIFLY MET'MAP TEAM :

Programmation & Développement : Alexandra Zaïnal
Sur une idée originale de : Baudouin d'Aumeries
Assistance à la programmation : Marc-Olivier Méhu
Soutien technique & logistique : Manuel Goepfert

Contact : metmap@orbifly.com




SOURCES & CREDITS :

   NOAA       Earth
Advisory